Terminal Aerodrome Forecast
Issued by NWS Mobile, AL

Current Version | Previous Version | Text Only | Print | Product List | Glossary On
Versions: 1 2 3 4 5 6 7 8 9 10 11 12 13 14 15 16 17 18 19 20 21 22 23 24 25 26 27 28 29 30 31 32 33 34 35 36 37 38
000
FTUS44 KMOB 270228 AAA
TAFMOB
TAF AMD
KMOB 270228Z 2702/2724 23005KT P6SM VCSH FEW050 SCT090 BKN150
     FM270500 33012G19KT 5SM -DZ BR SCT005 BKN015
     FM271300 34013KT P6SM SCT030=

USA.gov is the U.S. government's official web portal to all federal, state and local government web resources and services.